sensor_id;sensor_type;location;lat;lon;timestamp;P1;durP1;ratioP1;P2;durP2;ratioP2
23868;SDS011;12115;47.128;15.422;2022-11-15T00:01:32;88.25;;;54.83;;
23868;SDS011;12115;47.128;15.422;2022-11-15T00:04:17;101.95;;;55.35;;
23868;SDS011;12115;47.128;15.422;2022-11-15T00:07:03;87.85;;;52.97;;
23868;SDS011;12115;47.128;15.422;2022-11-15T00:09:49;96.80;;;56.92;;
23868;SDS011;12115;47.128;15.422;2022-11-15T00:12:34;100.70;;;56.47;;
23868;SDS011;12115;47.128;15.422;2022-11-15T00:15:20;92.53;;;56.88;;
23868;SDS011;12115;47.128;15.422;2022-11-15T00:18:06;114.95;;;64.00;;
23868;SDS011;12115;47.128;15.422;2022-11-15T00:21:02;101.23;;;60.50;;
23868;SDS011;12115;47.128;15.422;2022-11-15T00:23:50;109.53;;;61.55;;
23868;SDS011;12115;47.128;15.422;2022-11-15T00:26:36;120.70;;;63.72;;
23868;SDS011;12115;47.128;15.422;2022-11-15T00:29:21;107.47;;;62.20;;
23868;SDS011;12115;47.128;15.422;2022-11-15T00:32:07;108.72;;;60.00;;
23868;SDS011;12115;47.128;15.422;2022-11-15T00:34:52;117.47;;;63.13;;
23868;SDS011;12115;47.128;15.422;2022-11-15T00:37:38;93.05;;;53.47;;
23868;SDS011;12115;47.128;15.422;2022-11-15T00:40:23;104.88;;;57.35;;
23868;SDS011;12115;47.128;15.422;2022-11-15T00:43:09;102.55;;;58.97;;
23868;SDS011;12115;47.128;15.422;2022-11-15T00:45:55;102.35;;;58.00;;
23868;SDS011;12115;47.128;15.422;2022-11-15T00:48:41;109.28;;;58.13;;
23868;SDS011;12115;47.128;15.422;2022-11-15T00:51:26;114.03;;;63.45;;
23868;SDS011;12115;47.128;15.422;2022-11-15T00:54:12;91.15;;;52.95;;
23868;SDS011;12115;47.128;15.422;2022-11-15T00:56:59;98.53;;;58.65;;
23868;SDS011;12115;47.128;15.422;2022-11-15T00:59:44;101.35;;;58.33;;
23868;SDS011;12115;47.128;15.422;2022-11-15T01:02:30;99.68;;;57.78;;
23868;SDS011;12115;47.128;15.422;2022-11-15T01:05:15;100.10;;;57.60;;
23868;SDS011;12115;47.128;15.422;2022-11-15T01:08:04;98.18;;;53.85;;
23868;SDS011;12115;47.128;15.422;2022-11-15T01:10:50;99.78;;;54.95;;
23868;SDS011;12115;47.128;15.422;2022-11-15T01:13:36;101.47;;;56.90;;
23868;SDS011;12115;47.128;15.422;2022-11-15T01:16:22;103.85;;;58.17;;
23868;SDS011;12115;47.128;15.422;2022-11-15T01:19:08;107.15;;;59.28;;
23868;SDS011;12115;47.128;15.422;2022-11-15T01:21:54;107.85;;;55.03;;
23868;SDS011;12115;47.128;15.422;2022-11-15T01:24:39;103.47;;;57.15;;
23868;SDS011;12115;47.128;15.422;2022-11-15T01:27:25;101.78;;;54.17;;
23868;SDS011;12115;47.128;15.422;2022-11-15T01:30:10;94.18;;;54.72;;
23868;SDS011;12115;47.128;15.422;2022-11-15T01:32:56;118.05;;;57.53;;
23868;SDS011;12115;47.128;15.422;2022-11-15T01:35:42;95.40;;;53.40;;
23868;SDS011;12115;47.128;15.422;2022-11-15T01:38:27;106.63;;;57.70;;
23868;SDS011;12115;47.128;15.422;2022-11-15T01:41:16;119.90;;;60.92;;
23868;SDS011;12115;47.128;15.422;2022-11-15T01:47:29;111.63;;;58.40;;
23868;SDS011;12115;47.128;15.422;2022-11-15T01:50:19;97.10;;;53.20;;
23868;SDS011;12115;47.128;15.422;2022-11-15T01:53:09;106.50;;;56.95;;
23868;SDS011;12115;47.128;15.422;2022-11-15T01:55:55;117.10;;;59.85;;
23868;SDS011;12115;47.128;15.422;2022-11-15T01:58:41;116.45;;;61.40;;
23868;SDS011;12115;47.128;15.422;2022-11-15T02:01:28;107.85;;;55.78;;
23868;SDS011;12115;47.128;15.422;2022-11-15T02:07:02;102.80;;;56.92;;
23868;SDS011;12115;47.128;15.422;2022-11-15T02:09:49;94.78;;;53.58;;
23868;SDS011;12115;47.128;15.422;2022-11-15T02:12:36;88.93;;;53.13;;
23868;SDS011;12115;47.128;15.422;2022-11-15T02:15:23;82.25;;;49.35;;
23868;SDS011;12115;47.128;15.422;2022-11-15T02:18:14;110.03;;;56.88;;
23868;SDS011;12115;47.128;15.422;2022-11-15T02:27:47;107.30;;;57.85;;
23868;SDS011;12115;47.128;15.422;2022-11-15T02:36:28;95.53;;;52.83;;
23868;SDS011;12115;47.128;15.422;2022-11-15T02:39:40;87.07;;;51.13;;
23868;SDS011;12115;47.128;15.422;2022-11-15T02:42:55;93.95;;;54.10;;
23868;SDS011;12115;47.128;15.422;2022-11-15T02:46:08;92.15;;;52.58;;
23868;SDS011;12115;47.128;15.422;2022-11-15T02:48:59;82.68;;;47.60;;
23868;SDS011;12115;47.128;15.422;2022-11-15T02:51:46;79.57;;;43.65;;
23868;SDS011;12115;47.128;15.422;2022-11-15T02:54:34;88.88;;;51.25;;
23868;SDS011;12115;47.128;15.422;2022-11-15T02:57:20;81.50;;;48.78;;
23868;SDS011;12115;47.128;15.422;2022-11-15T03:08:53;95.20;;;53.00;;
23868;SDS011;12115;47.128;15.422;2022-11-15T03:11:55;83.35;;;48.90;;
23868;SDS011;12115;47.128;15.422;2022-11-15T03:15:01;82.35;;;49.00;;
23868;SDS011;12115;47.128;15.422;2022-11-15T03:18:12;81.87;;;48.10;;
23868;SDS011;12115;47.128;15.422;2022-11-15T03:24:00;86.60;;;48.28;;
23868;SDS011;12115;47.128;15.422;2022-11-15T03:26:49;88.28;;;50.35;;
23868;SDS011;12115;47.128;15.422;2022-11-15T03:29:37;83.97;;;49.78;;
23868;SDS011;12115;47.128;15.422;2022-11-15T03:32:27;80.82;;;46.60;;
23868;SDS011;12115;47.128;15.422;2022-11-15T03:35:19;87.57;;;48.60;;
23868;SDS011;12115;47.128;15.422;2022-11-15T03:38:25;87.35;;;50.10;;
23868;SDS011;12115;47.128;15.422;2022-11-15T03:41:16;89.18;;;48.10;;
23868;SDS011;12115;47.128;15.422;2022-11-15T03:44:21;80.90;;;44.45;;
23868;SDS011;12115;47.128;15.422;2022-11-15T03:47:11;79.70;;;45.10;;
23868;SDS011;12115;47.128;15.422;2022-11-15T03:50:03;78.63;;;45.15;;
23868;SDS011;12115;47.128;15.422;2022-11-15T03:52:55;73.82;;;42.88;;
23868;SDS011;12115;47.128;15.422;2022-11-15T03:55:42;71.88;;;42.88;;
23868;SDS011;12115;47.128;15.422;2022-11-15T03:58:27;72.13;;;44.38;;
23868;SDS011;12115;47.128;15.422;2022-11-15T04:01:13;70.25;;;43.47;;
23868;SDS011;12115;47.128;15.422;2022-11-15T04:03:58;71.72;;;43.60;;
23868;SDS011;12115;47.128;15.422;2022-11-15T04:06:44;81.50;;;47.05;;
23868;SDS011;12115;47.128;15.422;2022-11-15T04:09:30;73.82;;;43.20;;
23868;SDS011;12115;47.128;15.422;2022-11-15T04:12:15;71.63;;;42.28;;
23868;SDS011;12115;47.128;15.422;2022-11-15T04:15:16;65.80;;;41.22;;
23868;SDS011;12115;47.128;15.422;2022-11-15T04:18:03;53.15;;;34.42;;
23868;SDS011;12115;47.128;15.422;2022-11-15T04:20:49;47.30;;;32.60;;
23868;SDS011;12115;47.128;15.422;2022-11-15T04:23:53;46.42;;;32.88;;
23868;SDS011;12115;47.128;15.422;2022-11-15T04:26:57;53.03;;;34.58;;
23868;SDS011;12115;47.128;15.422;2022-11-15T04:29:42;44.25;;;32.03;;
23868;SDS011;12115;47.128;15.422;2022-11-15T04:32:28;45.92;;;32.40;;
23868;SDS011;12115;47.128;15.422;2022-11-15T04:35:13;45.67;;;34.20;;
23868;SDS011;12115;47.128;15.422;2022-11-15T04:37:59;45.60;;;33.72;;
23868;SDS011;12115;47.128;15.422;2022-11-15T04:40:46;50.13;;;33.78;;
23868;SDS011;12115;47.128;15.422;2022-11-15T04:43:31;41.53;;;30.45;;
23868;SDS011;12115;47.128;15.422;2022-11-15T04:46:17;45.80;;;31.98;;
23868;SDS011;12115;47.128;15.422;2022-11-15T04:49:03;39.95;;;29.15;;
23868;SDS011;12115;47.128;15.422;2022-11-15T04:51:49;50.08;;;33.20;;
23868;SDS011;12115;47.128;15.422;2022-11-15T04:54:34;57.80;;;33.83;;
23868;SDS011;12115;47.128;15.422;2022-11-15T04:57:20;52.58;;;31.80;;
23868;SDS011;12115;47.128;15.422;2022-11-15T05:00:06;55.35;;;32.72;;
23868;SDS011;12115;47.128;15.422;2022-11-15T05:02:54;57.72;;;34.65;;
23868;SDS011;12115;47.128;15.422;2022-11-15T05:05:59;55.20;;;33.53;;
23868;SDS011;12115;47.128;15.422;2022-11-15T05:08:44;66.60;;;38.60;;
23868;SDS011;12115;47.128;15.422;2022-11-15T05:11:30;66.35;;;38.10;;
23868;SDS011;12115;47.128;15.422;2022-11-15T05:14:16;51.25;;;34.42;;
23868;SDS011;12115;47.128;15.422;2022-11-15T05:17:02;58.05;;;33.80;;
23868;SDS011;12115;47.128;15.422;2022-11-15T05:19:47;52.85;;;34.53;;
23868;SDS011;12115;47.128;15.422;2022-11-15T05:22:33;51.78;;;33.85;;
23868;SDS011;12115;47.128;15.422;2022-11-15T05:25:18;57.03;;;34.13;;
23868;SDS011;12115;47.128;15.422;2022-11-15T05:28:04;49.60;;;34.22;;
23868;SDS011;12115;47.128;15.422;2022-11-15T05:30:49;52.03;;;34.03;;
23868;SDS011;12115;47.128;15.422;2022-11-15T05:33:35;55.92;;;32.30;;
23868;SDS011;12115;47.128;15.422;2022-11-15T05:36:41;53.50;;;32.55;;
23868;SDS011;12115;47.128;15.422;2022-11-15T05:39:28;59.83;;;34.13;;
23868;SDS011;12115;47.128;15.422;2022-11-15T05:42:14;59.70;;;36.53;;
23868;SDS011;12115;47.128;15.422;2022-11-15T05:45:02;45.47;;;29.48;;
23868;SDS011;12115;47.128;15.422;2022-11-15T05:47:50;54.33;;;33.28;;
23868;SDS011;12115;47.128;15.422;2022-11-15T05:50:38;58.60;;;34.97;;
23868;SDS011;12115;47.128;15.422;2022-11-15T05:53:26;53.35;;;33.10;;
23868;SDS011;12115;47.128;15.422;2022-11-15T05:56:11;55.25;;;34.60;;
23868;SDS011;12115;47.128;15.422;2022-11-15T05:58:59;58.25;;;36.25;;
23868;SDS011;12115;47.128;15.422;2022-11-15T06:01:44;55.13;;;33.75;;
23868;SDS011;12115;47.128;15.422;2022-11-15T06:04:30;61.58;;;36.17;;
23868;SDS011;12115;47.128;15.422;2022-11-15T06:07:16;60.90;;;33.00;;
23868;SDS011;12115;47.128;15.422;2022-11-15T06:10:01;53.13;;;32.28;;
23868;SDS011;12115;47.128;15.422;2022-11-15T06:12:48;44.78;;;30.80;;
23868;SDS011;12115;47.128;15.422;2022-11-15T06:15:48;55.03;;;34.63;;
23868;SDS011;12115;47.128;15.422;2022-11-15T06:18:34;60.63;;;36.15;;
23868;SDS011;12115;47.128;15.422;2022-11-15T06:21:21;61.22;;;38.72;;
23868;SDS011;12115;47.128;15.422;2022-11-15T06:24:07;54.70;;;35.83;;
23868;SDS011;12115;47.128;15.422;2022-11-15T06:26:53;56.17;;;34.88;;
23868;SDS011;12115;47.128;15.422;2022-11-15T06:29:39;51.58;;;32.45;;
23868;SDS011;12115;47.128;15.422;2022-11-15T06:32:25;49.35;;;32.35;;
23868;SDS011;12115;47.128;15.422;2022-11-15T06:35:10;52.55;;;34.75;;
23868;SDS011;12115;47.128;15.422;2022-11-15T06:38:01;46.35;;;32.55;;
23868;SDS011;12115;47.128;15.422;2022-11-15T06:40:51;47.15;;;31.17;;
23868;SDS011;12115;47.128;15.422;2022-11-15T06:43:36;44.95;;;33.03;;
23868;SDS011;12115;47.128;15.422;2022-11-15T06:46:22;42.75;;;29.10;;
23868;SDS011;12115;47.128;15.422;2022-11-15T06:49:08;41.95;;;28.63;;
23868;SDS011;12115;47.128;15.422;2022-11-15T06:51:54;49.75;;;32.38;;
23868;SDS011;12115;47.128;15.422;2022-11-15T06:54:39;47.05;;;31.38;;
23868;SDS011;12115;47.128;15.422;2022-11-15T06:57:24;39.70;;;28.08;;
23868;SDS011;12115;47.128;15.422;2022-11-15T07:00:10;45.33;;;28.65;;
23868;SDS011;12115;47.128;15.422;2022-11-15T07:02:59;33.42;;;24.77;;
23868;SDS011;12115;47.128;15.422;2022-11-15T07:05:55;35.70;;;26.80;;
23868;SDS011;12115;47.128;15.422;2022-11-15T07:08:50;34.45;;;24.83;;
23868;SDS011;12115;47.128;15.422;2022-11-15T07:11:36;37.97;;;26.83;;
23868;SDS011;12115;47.128;15.422;2022-11-15T07:14:21;39.10;;;27.10;;
23868;SDS011;12115;47.128;15.422;2022-11-15T07:17:07;36.92;;;25.67;;
23868;SDS011;12115;47.128;15.422;2022-11-15T07:19:52;40.55;;;26.20;;
23868;SDS011;12115;47.128;15.422;2022-11-15T07:22:38;36.33;;;24.92;;
23868;SDS011;12115;47.128;15.422;2022-11-15T07:25:24;39.55;;;26.75;;
23868;SDS011;12115;47.128;15.422;2022-11-15T07:28:09;36.60;;;26.10;;
23868;SDS011;12115;47.128;15.422;2022-11-15T07:30:55;40.63;;;27.33;;
23868;SDS011;12115;47.128;15.422;2022-11-15T07:33:41;36.28;;;25.38;;
23868;SDS011;12115;47.128;15.422;2022-11-15T07:36:27;37.20;;;25.30;;
23868;SDS011;12115;47.128;15.422;2022-11-15T07:39:12;40.53;;;26.80;;
23868;SDS011;12115;47.128;15.422;2022-11-15T07:41:59;43.65;;;28.13;;
23868;SDS011;12115;47.128;15.422;2022-11-15T07:45:04;46.50;;;29.17;;
23868;SDS011;12115;47.128;15.422;2022-11-15T07:47:50;43.70;;;27.95;;
23868;SDS011;12115;47.128;15.422;2022-11-15T07:50:35;38.72;;;25.80;;
23868;SDS011;12115;47.128;15.422;2022-11-15T07:53:21;46.80;;;28.42;;
23868;SDS011;12115;47.128;15.422;2022-11-15T07:56:07;41.90;;;28.88;;
23868;SDS011;12115;47.128;15.422;2022-11-15T07:58:53;52.28;;;28.88;;
23868;SDS011;12115;47.128;15.422;2022-11-15T08:01:39;51.33;;;28.38;;
23868;SDS011;12115;47.128;15.422;2022-11-15T08:04:24;47.35;;;29.65;;
23868;SDS011;12115;47.128;15.422;2022-11-15T08:07:10;54.05;;;31.42;;
23868;SDS011;12115;47.128;15.422;2022-11-15T08:09:55;51.28;;;30.52;;
23868;SDS011;12115;47.128;15.422;2022-11-15T08:12:41;49.65;;;29.88;;
23868;SDS011;12115;47.128;15.422;2022-11-15T08:15:27;47.95;;;28.48;;
23868;SDS011;12115;47.128;15.422;2022-11-15T08:18:13;43.90;;;26.25;;
23868;SDS011;12115;47.128;15.422;2022-11-15T08:21:00;44.05;;;28.48;;
23868;SDS011;12115;47.128;15.422;2022-11-15T08:23:46;42.80;;;27.80;;
23868;SDS011;12115;47.128;15.422;2022-11-15T08:26:32;44.00;;;28.75;;
23868;SDS011;12115;47.128;15.422;2022-11-15T08:29:17;54.30;;;30.42;;
23868;SDS011;12115;47.128;15.422;2022-11-15T08:32:03;48.05;;;31.25;;
23868;SDS011;12115;47.128;15.422;2022-11-15T08:34:49;52.22;;;31.95;;
23868;SDS011;12115;47.128;15.422;2022-11-15T08:37:35;51.42;;;33.15;;
23868;SDS011;12115;47.128;15.422;2022-11-15T08:40:21;41.70;;;27.60;;
23868;SDS011;12115;47.128;15.422;2022-11-15T08:43:07;38.78;;;26.48;;
23868;SDS011;12115;47.128;15.422;2022-11-15T08:45:55;40.25;;;26.85;;
23868;SDS011;12115;47.128;15.422;2022-11-15T08:48:42;42.63;;;27.98;;
23868;SDS011;12115;47.128;15.422;2022-11-15T08:51:27;46.20;;;29.23;;
23868;SDS011;12115;47.128;15.422;2022-11-15T08:54:13;43.95;;;29.70;;
23868;SDS011;12115;47.128;15.422;2022-11-15T08:56:58;41.38;;;27.95;;
23868;SDS011;12115;47.128;15.422;2022-11-15T08:59:44;40.17;;;27.58;;
23868;SDS011;12115;47.128;15.422;2022-11-15T09:02:29;38.28;;;27.60;;
23868;SDS011;12115;47.128;15.422;2022-11-15T09:05:15;42.85;;;27.85;;
23868;SDS011;12115;47.128;15.422;2022-11-15T09:08:01;39.42;;;25.95;;
23868;SDS011;12115;47.128;15.422;2022-11-15T09:11:07;36.88;;;25.23;;
23868;SDS011;12115;47.128;15.422;2022-11-15T09:13:54;37.63;;;25.73;;
23868;SDS011;12115;47.128;15.422;2022-11-15T09:16:40;39.88;;;26.90;;
23868;SDS011;12115;47.128;15.422;2022-11-15T09:19:26;37.45;;;25.45;;
23868;SDS011;12115;47.128;15.422;2022-11-15T09:22:11;37.53;;;25.48;;
23868;SDS011;12115;47.128;15.422;2022-11-15T09:24:57;33.90;;;25.05;;
23868;SDS011;12115;47.128;15.422;2022-11-15T09:27:42;33.83;;;23.73;;
23868;SDS011;12115;47.128;15.422;2022-11-15T09:30:28;33.10;;;23.63;;
23868;SDS011;12115;47.128;15.422;2022-11-15T09:33:14;33.50;;;23.33;;
23868;SDS011;12115;47.128;15.422;2022-11-15T09:36:04;32.13;;;23.35;;
23868;SDS011;12115;47.128;15.422;2022-11-15T09:38:51;36.58;;;23.10;;
23868;SDS011;12115;47.128;15.422;2022-11-15T09:45:06;32.90;;;25.85;;
23868;SDS011;12115;47.128;15.422;2022-11-15T09:48:17;36.10;;;24.98;;
23868;SDS011;12115;47.128;15.422;2022-11-15T09:51:33;32.00;;;24.52;;
23868;SDS011;12115;47.128;15.422;2022-11-15T09:54:16;35.35;;;25.33;;
23868;SDS011;12115;47.128;15.422;2022-11-15T09:57:24;33.08;;;24.40;;
23868;SDS011;12115;47.128;15.422;2022-11-15T10:00:09;30.05;;;23.40;;
23868;SDS011;12115;47.128;15.422;2022-11-15T10:05:43;33.72;;;24.67;;
23868;SDS011;12115;47.128;15.422;2022-11-15T10:11:31;31.58;;;23.95;;
23868;SDS011;12115;47.128;15.422;2022-11-15T10:19:34;33.75;;;23.75;;
23868;SDS011;12115;47.128;15.422;2022-11-15T10:24:47;29.35;;;22.42;;
23868;SDS011;12115;47.128;15.422;2022-11-15T10:27:17;31.58;;;22.45;;
23868;SDS011;12115;47.128;15.422;2022-11-15T10:29:46;30.23;;;23.13;;
23868;SDS011;12115;47.128;15.422;2022-11-15T10:32:14;30.15;;;22.73;;
23868;SDS011;12115;47.128;15.422;2022-11-15T10:34:44;31.40;;;22.95;;
23868;SDS011;12115;47.128;15.422;2022-11-15T10:37:11;31.25;;;20.83;;
23868;SDS011;12115;47.128;15.422;2022-11-15T10:39:38;33.90;;;24.40;;
23868;SDS011;12115;47.128;15.422;2022-11-15T10:42:22;35.78;;;26.02;;
23868;SDS011;12115;47.128;15.422;2022-11-15T10:44:53;36.75;;;25.55;;
23868;SDS011;12115;47.128;15.422;2022-11-15T10:47:22;33.08;;;24.38;;
23868;SDS011;12115;47.128;15.422;2022-11-15T10:52:45;49.22;;;31.42;;
23868;SDS011;12115;47.128;15.422;2022-11-15T10:57:48;54.35;;;32.40;;
23868;SDS011;12115;47.128;15.422;2022-11-15T11:10:37;43.75;;;29.85;;
23868;SDS011;12115;47.128;15.422;2022-11-15T11:13:26;42.10;;;29.60;;
23868;SDS011;12115;47.128;15.422;2022-11-15T11:21:14;77.82;;;44.85;;
23868;SDS011;12115;47.128;15.422;2022-11-15T11:24:03;79.88;;;45.60;;
23868;SDS011;12115;47.128;15.422;2022-11-15T11:26:40;70.18;;;40.28;;
23868;SDS011;12115;47.128;15.422;2022-11-15T11:52:22;72.32;;;40.15;;
23868;SDS011;12115;47.128;15.422;2022-11-15T11:55:13;71.18;;;40.15;;
23868;SDS011;12115;47.128;15.422;2022-11-15T12:00:29;71.32;;;40.80;;
23868;SDS011;12115;47.128;15.422;2022-11-15T12:11:14;74.57;;;41.10;;
23868;SDS011;12115;47.128;15.422;2022-11-15T12:13:43;72.65;;;42.33;;
23868;SDS011;12115;47.128;15.422;2022-11-15T12:18:48;75.55;;;40.50;;
23868;SDS011;12115;47.128;15.422;2022-11-15T12:24:33;69.50;;;38.63;;
23868;SDS011;12115;47.128;15.422;2022-11-15T12:27:17;68.28;;;37.47;;
23868;SDS011;12115;47.128;15.422;2022-11-15T12:29:56;68.53;;;38.95;;
23868;SDS011;12115;47.128;15.422;2022-11-15T12:32:28;67.05;;;39.20;;
23868;SDS011;12115;47.128;15.422;2022-11-15T12:34:59;71.57;;;41.00;;
23868;SDS011;12115;47.128;15.422;2022-11-15T12:45:35;61.40;;;35.78;;
23868;SDS011;12115;47.128;15.422;2022-11-15T13:12:11;53.38;;;31.67;;
23868;SDS011;12115;47.128;15.422;2022-11-15T13:14:53;52.97;;;33.47;;
23868;SDS011;12115;47.128;15.422;2022-11-15T13:17:34;53.05;;;32.65;;
23868;SDS011;12115;47.128;15.422;2022-11-15T13:22:46;53.70;;;33.13;;
23868;SDS011;12115;47.128;15.422;2022-11-15T13:25:19;50.88;;;32.70;;
23868;SDS011;12115;47.128;15.422;2022-11-15T13:27:53;56.70;;;34.22;;
23868;SDS011;12115;47.128;15.422;2022-11-15T13:30:27;53.03;;;32.63;;
23868;SDS011;12115;47.128;15.422;2022-11-15T13:33:05;55.80;;;32.50;;
23868;SDS011;12115;47.128;15.422;2022-11-15T13:35:41;49.47;;;32.20;;
23868;SDS011;12115;47.128;15.422;2022-11-15T13:38:25;56.65;;;33.42;;
23868;SDS011;12115;47.128;15.422;2022-11-15T13:41:09;52.10;;;30.60;;
23868;SDS011;12115;47.128;15.422;2022-11-15T13:43:42;49.72;;;30.63;;
23868;SDS011;12115;47.128;15.422;2022-11-15T13:46:15;48.70;;;31.38;;
23868;SDS011;12115;47.128;15.422;2022-11-15T13:48:44;52.90;;;32.70;;
23868;SDS011;12115;47.128;15.422;2022-11-15T13:53:58;47.63;;;30.35;;
23868;SDS011;12115;47.128;15.422;2022-11-15T13:56:34;47.00;;;29.70;;
23868;SDS011;12115;47.128;15.422;2022-11-15T13:59:22;50.65;;;30.58;;
23868;SDS011;12115;47.128;15.422;2022-11-15T14:01:54;51.13;;;31.27;;
23868;SDS011;12115;47.128;15.422;2022-11-15T14:04:23;46.47;;;28.33;;
23868;SDS011;12115;47.128;15.422;2022-11-15T14:06:53;56.03;;;30.90;;
23868;SDS011;12115;47.128;15.422;2022-11-15T14:11:59;48.38;;;30.10;;
23868;SDS011;12115;47.128;15.422;2022-11-15T14:14:29;46.45;;;28.48;;
23868;SDS011;12115;47.128;15.422;2022-11-15T14:16:57;51.40;;;31.20;;
23868;SDS011;12115;47.128;15.422;2022-11-15T14:22:12;43.40;;;28.35;;
23868;SDS011;12115;47.128;15.422;2022-11-15T14:24:40;49.78;;;28.52;;
23868;SDS011;12115;47.128;15.422;2022-11-15T14:27:24;50.83;;;29.08;;
23868;SDS011;12115;47.128;15.422;2022-11-15T14:29:54;42.28;;;27.73;;
23868;SDS011;12115;47.128;15.422;2022-11-15T14:32:22;47.53;;;28.77;;
23868;SDS011;12115;47.128;15.422;2022-11-15T14:34:55;44.05;;;29.05;;
23868;SDS011;12115;47.128;15.422;2022-11-15T14:37:29;50.33;;;30.60;;
23868;SDS011;12115;47.128;15.422;2022-11-15T14:40:01;47.80;;;29.38;;
23868;SDS011;12115;47.128;15.422;2022-11-15T14:42:29;44.20;;;29.17;;
23868;SDS011;12115;47.128;15.422;2022-11-15T14:44:56;44.03;;;29.20;;
23868;SDS011;12115;47.128;15.422;2022-11-15T14:47:24;43.85;;;29.75;;
23868;SDS011;12115;47.128;15.422;2022-11-15T14:49:51;43.13;;;28.33;;
23868;SDS011;12115;47.128;15.422;2022-11-15T14:52:31;40.15;;;26.42;;
23868;SDS011;12115;47.128;15.422;2022-11-15T14:55:02;44.90;;;27.63;;
23868;SDS011;12115;47.128;15.422;2022-11-15T14:57:37;37.60;;;25.67;;
23868;SDS011;12115;47.128;15.422;2022-11-15T15:00:04;43.42;;;27.27;;
23868;SDS011;12115;47.128;15.422;2022-11-15T15:02:37;44.47;;;27.63;;
23868;SDS011;12115;47.128;15.422;2022-11-15T15:07:48;47.58;;;29.58;;
23868;SDS011;12115;47.128;15.422;2022-11-15T15:10:16;43.95;;;26.75;;
23868;SDS011;12115;47.128;15.422;2022-11-15T15:13:04;41.53;;;26.65;;
23868;SDS011;12115;47.128;15.422;2022-11-15T15:15:32;41.85;;;29.27;;
23868;SDS011;12115;47.128;15.422;2022-11-15T15:18:04;43.63;;;27.48;;
23868;SDS011;12115;47.128;15.422;2022-11-15T15:20:31;42.90;;;27.40;;
23868;SDS011;12115;47.128;15.422;2022-11-15T15:22:59;40.50;;;27.70;;
23868;SDS011;12115;47.128;15.422;2022-11-15T15:25:28;36.70;;;25.52;;
23868;SDS011;12115;47.128;15.422;2022-11-15T15:27:58;40.25;;;26.10;;
23868;SDS011;12115;47.128;15.422;2022-11-15T15:30:26;34.85;;;23.90;;
23868;SDS011;12115;47.128;15.422;2022-11-15T15:32:54;43.88;;;26.13;;
23868;SDS011;12115;47.128;15.422;2022-11-15T15:35:22;38.15;;;25.30;;
23868;SDS011;12115;47.128;15.422;2022-11-15T15:37:49;41.65;;;26.35;;
23868;SDS011;12115;47.128;15.422;2022-11-15T15:40:18;38.78;;;25.67;;
23868;SDS011;12115;47.128;15.422;2022-11-15T15:42:48;39.08;;;26.52;;
23868;SDS011;12115;47.128;15.422;2022-11-15T15:45:16;40.97;;;27.25;;
23868;SDS011;12115;47.128;15.422;2022-11-15T15:47:44;40.35;;;26.27;;
23868;SDS011;12115;47.128;15.422;2022-11-15T15:52:54;42.28;;;27.42;;
23868;SDS011;12115;47.128;15.422;2022-11-15T15:55:23;38.72;;;26.10;;
23868;SDS011;12115;47.128;15.422;2022-11-15T15:57:51;41.42;;;27.08;;
23868;SDS011;12115;47.128;15.422;2022-11-15T16:00:18;40.33;;;26.35;;
23868;SDS011;12115;47.128;15.422;2022-11-15T16:02:46;38.85;;;26.20;;
23868;SDS011;12115;47.128;15.422;2022-11-15T16:05:13;40.25;;;25.67;;
23868;SDS011;12115;47.128;15.422;2022-11-15T16:07:40;38.58;;;26.42;;
23868;SDS011;12115;47.128;15.422;2022-11-15T16:12:43;43.42;;;28.55;;
23868;SDS011;12115;47.128;15.422;2022-11-15T16:15:10;40.53;;;26.50;;
23868;SDS011;12115;47.128;15.422;2022-11-15T16:17:38;44.10;;;29.38;;
23868;SDS011;12115;47.128;15.422;2022-11-15T16:20:31;42.60;;;28.25;;
23868;SDS011;12115;47.128;15.422;2022-11-15T16:23:01;39.67;;;26.70;;
23868;SDS011;12115;47.128;15.422;2022-11-15T16:25:45;43.90;;;29.48;;
23868;SDS011;12115;47.128;15.422;2022-11-15T16:33:30;42.67;;;27.38;;
23868;SDS011;12115;47.128;15.422;2022-11-15T16:35:58;43.55;;;28.83;;
23868;SDS011;12115;47.128;15.422;2022-11-15T16:38:25;47.63;;;30.55;;
23868;SDS011;12115;47.128;15.422;2022-11-15T16:40:53;45.03;;;30.38;;
23868;SDS011;12115;47.128;15.422;2022-11-15T16:43:20;43.85;;;28.30;;
23868;SDS011;12115;47.128;15.422;2022-11-15T16:45:48;38.45;;;26.13;;
23868;SDS011;12115;47.128;15.422;2022-11-15T16:48:26;45.10;;;27.63;;
23868;SDS011;12115;47.128;15.422;2022-11-15T16:50:54;41.45;;;26.25;;
23868;SDS011;12115;47.128;15.422;2022-11-15T16:53:23;42.80;;;28.38;;
23868;SDS011;12115;47.128;15.422;2022-11-15T16:55:51;41.65;;;27.48;;
23868;SDS011;12115;47.128;15.422;2022-11-15T16:58:19;40.70;;;29.90;;
23868;SDS011;12115;47.128;15.422;2022-11-15T17:00:55;43.17;;;29.38;;
23868;SDS011;12115;47.128;15.422;2022-11-15T17:03:23;43.78;;;28.60;;
23868;SDS011;12115;47.128;15.422;2022-11-15T17:05:51;42.97;;;27.95;;
23868;SDS011;12115;47.128;15.422;2022-11-15T17:08:18;40.83;;;27.98;;
23868;SDS011;12115;47.128;15.422;2022-11-15T17:10:47;41.05;;;26.63;;
23868;SDS011;12115;47.128;15.422;2022-11-15T17:13:15;40.10;;;25.45;;
23868;SDS011;12115;47.128;15.422;2022-11-15T17:15:42;38.30;;;26.83;;
23868;SDS011;12115;47.128;15.422;2022-11-15T17:18:10;37.85;;;25.85;;
23868;SDS011;12115;47.128;15.422;2022-11-15T17:20:39;39.45;;;27.65;;
23868;SDS011;12115;47.128;15.422;2022-11-15T17:23:13;43.00;;;28.38;;
23868;SDS011;12115;47.128;15.422;2022-11-15T17:25:41;41.28;;;27.65;;
23868;SDS011;12115;47.128;15.422;2022-11-15T17:28:09;43.70;;;28.25;;
23868;SDS011;12115;47.128;15.422;2022-11-15T17:30:39;47.60;;;30.55;;
23868;SDS011;12115;47.128;15.422;2022-11-15T17:33:09;44.85;;;28.23;;
23868;SDS011;12115;47.128;15.422;2022-11-15T17:35:37;48.13;;;30.10;;
23868;SDS011;12115;47.128;15.422;2022-11-15T17:38:04;47.15;;;29.92;;
23868;SDS011;12115;47.128;15.422;2022-11-15T17:40:32;49.00;;;30.10;;
23868;SDS011;12115;47.128;15.422;2022-11-15T17:42:59;45.75;;;29.45;;
23868;SDS011;12115;47.128;15.422;2022-11-15T17:45:28;51.75;;;32.38;;
23868;SDS011;12115;47.128;15.422;2022-11-15T17:47:56;58.53;;;34.63;;
23868;SDS011;12115;47.128;15.422;2022-11-15T17:50:23;59.47;;;34.58;;
23868;SDS011;12115;47.128;15.422;2022-11-15T17:52:51;55.25;;;34.33;;
23868;SDS011;12115;47.128;15.422;2022-11-15T17:55:18;52.75;;;31.38;;
23868;SDS011;12115;47.128;15.422;2022-11-15T17:57:45;51.45;;;31.83;;
23868;SDS011;12115;47.128;15.422;2022-11-15T18:00:12;48.47;;;30.92;;
23868;SDS011;12115;47.128;15.422;2022-11-15T18:02:42;49.83;;;31.70;;
23868;SDS011;12115;47.128;15.422;2022-11-15T18:05:09;57.45;;;36.75;;
23868;SDS011;12115;47.128;15.422;2022-11-15T18:07:36;51.85;;;33.92;;
23868;SDS011;12115;47.128;15.422;2022-11-15T18:10:05;49.22;;;31.30;;
23868;SDS011;12115;47.128;15.422;2022-11-15T18:12:34;47.78;;;30.60;;
23868;SDS011;12115;47.128;15.422;2022-11-15T18:15:01;48.60;;;31.58;;